sensor_id;sensor_type;location;lat;lon;timestamp;P1;durP1;ratioP1;P2;durP2;ratioP2
7263;SDS011;3673;52.480;13.348;2023-11-19T00:02:24;10.32;;;6.93;;
7263;SDS011;3673;52.480;13.348;2023-11-19T00:04:51;10.02;;;7.60;;
7263;SDS011;3673;52.480;13.348;2023-11-19T00:07:19;8.68;;;6.82;;
7263;SDS011;3673;52.480;13.348;2023-11-19T00:09:45;11.27;;;6.90;;
7263;SDS011;3673;52.480;13.348;2023-11-19T00:12:12;9.02;;;7.07;;
7263;SDS011;3673;52.480;13.348;2023-11-19T00:14:40;9.25;;;6.03;;
7263;SDS011;3673;52.480;13.348;2023-11-19T00:17:07;8.40;;;6.85;;
7263;SDS011;3673;52.480;13.348;2023-11-19T00:19:34;10.15;;;7.00;;
7263;SDS011;3673;52.480;13.348;2023-11-19T00:22:00;9.90;;;6.95;;
7263;SDS011;3673;52.480;13.348;2023-11-19T00:24:28;10.10;;;7.00;;
7263;SDS011;3673;52.480;13.348;2023-11-19T00:26:55;8.18;;;6.57;;
7263;SDS011;3673;52.480;13.348;2023-11-19T00:29:22;10.35;;;6.95;;
7263;SDS011;3673;52.480;13.348;2023-11-19T00:31:51;8.25;;;6.47;;
7263;SDS011;3673;52.480;13.348;2023-11-19T00:34:18;9.38;;;7.32;;
7263;SDS011;3673;52.480;13.348;2023-11-19T00:36:46;9.27;;;6.63;;
7263;SDS011;3673;52.480;13.348;2023-11-19T00:39:14;9.43;;;6.32;;
7263;SDS011;3673;52.480;13.348;2023-11-19T00:41:40;8.88;;;6.78;;
7263;SDS011;3673;52.480;13.348;2023-11-19T00:44:07;11.07;;;7.45;;
7263;SDS011;3673;52.480;13.348;2023-11-19T00:46:34;9.88;;;7.80;;
7263;SDS011;3673;52.480;13.348;2023-11-19T00:49:03;8.38;;;6.22;;
7263;SDS011;3673;52.480;13.348;2023-11-19T00:51:29;8.90;;;6.57;;
7263;SDS011;3673;52.480;13.348;2023-11-19T00:53:56;9.25;;;6.50;;
7263;SDS011;3673;52.480;13.348;2023-11-19T00:56:24;8.82;;;5.95;;
7263;SDS011;3673;52.480;13.348;2023-11-19T00:58:50;11.13;;;6.57;;
7263;SDS011;3673;52.480;13.348;2023-11-19T01:01:17;10.85;;;6.75;;
7263;SDS011;3673;52.480;13.348;2023-11-19T01:03:44;9.02;;;6.70;;
7263;SDS011;3673;52.480;13.348;2023-11-19T01:06:12;9.35;;;6.35;;
7263;SDS011;3673;52.480;13.348;2023-11-19T01:08:41;7.50;;;5.60;;
7263;SDS011;3673;52.480;13.348;2023-11-19T01:11:11;9.18;;;6.40;;
7263;SDS011;3673;52.480;13.348;2023-11-19T01:13:46;7.40;;;5.90;;
7263;SDS011;3673;52.480;13.348;2023-11-19T01:16:13;9.05;;;6.30;;
7263;SDS011;3673;52.480;13.348;2023-11-19T01:18:40;8.25;;;6.05;;
7263;SDS011;3673;52.480;13.348;2023-11-19T01:21:07;8.80;;;5.72;;
7263;SDS011;3673;52.480;13.348;2023-11-19T01:23:35;7.95;;;5.82;;
7263;SDS011;3673;52.480;13.348;2023-11-19T01:26:02;6.57;;;5.88;;
7263;SDS011;3673;52.480;13.348;2023-11-19T01:28:30;7.82;;;6.05;;
7263;SDS011;3673;52.480;13.348;2023-11-19T01:30:57;10.57;;;5.88;;
7263;SDS011;3673;52.480;13.348;2023-11-19T01:33:23;7.80;;;6.70;;
7263;SDS011;3673;52.480;13.348;2023-11-19T01:35:50;8.30;;;5.95;;
7263;SDS011;3673;52.480;13.348;2023-11-19T01:38:17;8.68;;;6.20;;
7263;SDS011;3673;52.480;13.348;2023-11-19T01:40:45;11.45;;;6.63;;
7263;SDS011;3673;52.480;13.348;2023-11-19T01:43:11;12.82;;;7.38;;
7263;SDS011;3673;52.480;13.348;2023-11-19T01:45:40;6.93;;;5.80;;
7263;SDS011;3673;52.480;13.348;2023-11-19T01:48:06;8.60;;;6.00;;
7263;SDS011;3673;52.480;13.348;2023-11-19T01:50:36;8.57;;;5.95;;
7263;SDS011;3673;52.480;13.348;2023-11-19T01:53:03;8.68;;;6.55;;
7263;SDS011;3673;52.480;13.348;2023-11-19T01:55:30;11.45;;;6.22;;
7263;SDS011;3673;52.480;13.348;2023-11-19T01:57:59;8.15;;;6.68;;
7263;SDS011;3673;52.480;13.348;2023-11-19T02:00:27;10.10;;;5.93;;
7263;SDS011;3673;52.480;13.348;2023-11-19T02:02:54;11.82;;;7.15;;
7263;SDS011;3673;52.480;13.348;2023-11-19T02:05:21;11.68;;;7.35;;
7263;SDS011;3673;52.480;13.348;2023-11-19T02:07:48;8.57;;;6.53;;
7263;SDS011;3673;52.480;13.348;2023-11-19T02:10:16;9.45;;;7.20;;
7263;SDS011;3673;52.480;13.348;2023-11-19T02:12:44;14.23;;;9.70;;
7263;SDS011;3673;52.480;13.348;2023-11-19T02:15:13;9.93;;;7.53;;
7263;SDS011;3673;52.480;13.348;2023-11-19T02:17:39;10.57;;;6.80;;
7263;SDS011;3673;52.480;13.348;2023-11-19T02:20:06;9.02;;;6.32;;
7263;SDS011;3673;52.480;13.348;2023-11-19T02:22:36;10.23;;;6.80;;
7263;SDS011;3673;52.480;13.348;2023-11-19T02:25:04;8.77;;;5.88;;
7263;SDS011;3673;52.480;13.348;2023-11-19T02:27:44;9.95;;;5.97;;
7263;SDS011;3673;52.480;13.348;2023-11-19T02:30:21;7.60;;;5.63;;
7263;SDS011;3673;52.480;13.348;2023-11-19T02:32:51;9.95;;;6.65;;
7263;SDS011;3673;52.480;13.348;2023-11-19T02:35:18;7.40;;;5.63;;
7263;SDS011;3673;52.480;13.348;2023-11-19T02:37:46;10.60;;;6.40;;
7263;SDS011;3673;52.480;13.348;2023-11-19T02:40:13;9.52;;;6.32;;
7263;SDS011;3673;52.480;13.348;2023-11-19T02:42:40;7.93;;;5.97;;
7263;SDS011;3673;52.480;13.348;2023-11-19T02:45:09;6.93;;;5.47;;
7263;SDS011;3673;52.480;13.348;2023-11-19T02:47:39;8.45;;;6.63;;
7263;SDS011;3673;52.480;13.348;2023-11-19T02:50:07;7.45;;;5.80;;
7263;SDS011;3673;52.480;13.348;2023-11-19T02:52:39;7.88;;;5.80;;
7263;SDS011;3673;52.480;13.348;2023-11-19T02:55:06;5.68;;;4.80;;
7263;SDS011;3673;52.480;13.348;2023-11-19T02:57:37;6.65;;;5.47;;
7263;SDS011;3673;52.480;13.348;2023-11-19T03:00:06;9.02;;;5.65;;
7263;SDS011;3673;52.480;13.348;2023-11-19T03:02:38;7.68;;;5.20;;
7263;SDS011;3673;52.480;13.348;2023-11-19T03:05:09;7.07;;;5.30;;
7263;SDS011;3673;52.480;13.348;2023-11-19T03:07:36;8.07;;;4.97;;
7263;SDS011;3673;52.480;13.348;2023-11-19T03:10:03;5.45;;;4.32;;
7263;SDS011;3673;52.480;13.348;2023-11-19T03:12:31;6.60;;;5.18;;
7263;SDS011;3673;52.480;13.348;2023-11-19T03:14:58;5.68;;;4.40;;
7263;SDS011;3673;52.480;13.348;2023-11-19T03:17:26;7.22;;;4.55;;
7263;SDS011;3673;52.480;13.348;2023-11-19T03:19:53;8.10;;;5.22;;
7263;SDS011;3673;52.480;13.348;2023-11-19T03:22:19;9.18;;;5.72;;
7263;SDS011;3673;52.480;13.348;2023-11-19T03:24:46;8.05;;;5.40;;
7263;SDS011;3673;52.480;13.348;2023-11-19T03:27:13;9.93;;;5.78;;
7263;SDS011;3673;52.480;13.348;2023-11-19T03:29:40;6.55;;;4.57;;
7263;SDS011;3673;52.480;13.348;2023-11-19T03:32:06;6.38;;;4.75;;
7263;SDS011;3673;52.480;13.348;2023-11-19T03:34:34;8.27;;;5.10;;
7263;SDS011;3673;52.480;13.348;2023-11-19T03:37:01;10.43;;;4.63;;
7263;SDS011;3673;52.480;13.348;2023-11-19T03:39:28;6.95;;;4.38;;
7263;SDS011;3673;52.480;13.348;2023-11-19T03:41:55;7.10;;;5.90;;
7263;SDS011;3673;52.480;13.348;2023-11-19T03:44:21;6.53;;;5.38;;
7263;SDS011;3673;52.480;13.348;2023-11-19T03:46:48;5.90;;;4.85;;
7263;SDS011;3673;52.480;13.348;2023-11-19T03:49:14;7.85;;;5.38;;
7263;SDS011;3673;52.480;13.348;2023-11-19T03:51:42;7.70;;;5.88;;
7263;SDS011;3673;52.480;13.348;2023-11-19T03:54:09;8.55;;;6.15;;
7263;SDS011;3673;52.480;13.348;2023-11-19T03:56:36;7.75;;;5.97;;
7263;SDS011;3673;52.480;13.348;2023-11-19T03:59:03;7.80;;;6.18;;
7263;SDS011;3673;52.480;13.348;2023-11-19T04:01:30;9.63;;;5.65;;
7263;SDS011;3673;52.480;13.348;2023-11-19T04:03:56;7.95;;;6.18;;
7263;SDS011;3673;52.480;13.348;2023-11-19T04:06:24;11.13;;;6.40;;
7263;SDS011;3673;52.480;13.348;2023-11-19T04:08:53;9.60;;;7.28;;
7263;SDS011;3673;52.480;13.348;2023-11-19T04:11:20;8.30;;;6.03;;
7263;SDS011;3673;52.480;13.348;2023-11-19T04:13:47;7.85;;;6.75;;
7263;SDS011;3673;52.480;13.348;2023-11-19T04:16:14;11.40;;;6.63;;
7263;SDS011;3673;52.480;13.348;2023-11-19T04:18:40;9.43;;;6.32;;
7263;SDS011;3673;52.480;13.348;2023-11-19T04:21:07;10.98;;;6.40;;
7263;SDS011;3673;52.480;13.348;2023-11-19T04:23:34;8.77;;;6.40;;
7263;SDS011;3673;52.480;13.348;2023-11-19T04:26:03;9.63;;;7.20;;
7263;SDS011;3673;52.480;13.348;2023-11-19T04:28:31;8.43;;;6.55;;
7263;SDS011;3673;52.480;13.348;2023-11-19T04:30:58;9.40;;;6.68;;
7263;SDS011;3673;52.480;13.348;2023-11-19T04:33:25;10.80;;;6.90;;
7263;SDS011;3673;52.480;13.348;2023-11-19T04:35:51;9.88;;;6.93;;
7263;SDS011;3673;52.480;13.348;2023-11-19T04:38:18;10.88;;;7.57;;
7263;SDS011;3673;52.480;13.348;2023-11-19T04:40:45;9.85;;;7.28;;
7263;SDS011;3673;52.480;13.348;2023-11-19T04:43:13;9.25;;;6.75;;
7263;SDS011;3673;52.480;13.348;2023-11-19T04:45:40;8.23;;;6.85;;
7263;SDS011;3673;52.480;13.348;2023-11-19T04:48:07;12.55;;;7.53;;
7263;SDS011;3673;52.480;13.348;2023-11-19T04:50:34;10.15;;;7.07;;
7263;SDS011;3673;52.480;13.348;2023-11-19T04:53:01;9.82;;;6.63;;
7263;SDS011;3673;52.480;13.348;2023-11-19T04:55:28;9.77;;;7.07;;
7263;SDS011;3673;52.480;13.348;2023-11-19T04:57:54;8.98;;;6.78;;
7263;SDS011;3673;52.480;13.348;2023-11-19T05:00:22;9.80;;;6.95;;
7263;SDS011;3673;52.480;13.348;2023-11-19T05:02:49;9.73;;;7.00;;
7263;SDS011;3673;52.480;13.348;2023-11-19T05:05:16;9.43;;;7.25;;
7263;SDS011;3673;52.480;13.348;2023-11-19T05:07:43;9.98;;;7.35;;
7263;SDS011;3673;52.480;13.348;2023-11-19T05:10:10;10.40;;;7.53;;
7263;SDS011;3673;52.480;13.348;2023-11-19T05:12:37;11.60;;;6.72;;
7263;SDS011;3673;52.480;13.348;2023-11-19T05:15:04;10.45;;;7.53;;
7263;SDS011;3673;52.480;13.348;2023-11-19T05:17:33;10.20;;;6.78;;
7263;SDS011;3673;52.480;13.348;2023-11-19T05:20:00;11.93;;;7.28;;
7263;SDS011;3673;52.480;13.348;2023-11-19T05:22:27;9.95;;;7.30;;
7263;SDS011;3673;52.480;13.348;2023-11-19T05:24:54;14.40;;;8.25;;
7263;SDS011;3673;52.480;13.348;2023-11-19T05:27:20;11.07;;;8.35;;
7263;SDS011;3673;52.480;13.348;2023-11-19T05:29:48;11.00;;;7.75;;
7263;SDS011;3673;52.480;13.348;2023-11-19T05:32:15;10.93;;;7.25;;
7263;SDS011;3673;52.480;13.348;2023-11-19T05:34:43;8.98;;;6.85;;
7263;SDS011;3673;52.480;13.348;2023-11-19T05:37:10;9.50;;;6.88;;
7263;SDS011;3673;52.480;13.348;2023-11-19T05:39:36;10.07;;;6.75;;
7263;SDS011;3673;52.480;13.348;2023-11-19T05:42:03;10.13;;;7.55;;
7263;SDS011;3673;52.480;13.348;2023-11-19T05:44:30;9.18;;;7.18;;
7263;SDS011;3673;52.480;13.348;2023-11-19T05:46:57;10.05;;;7.30;;
7263;SDS011;3673;52.480;13.348;2023-11-19T05:49:24;10.75;;;7.53;;
7263;SDS011;3673;52.480;13.348;2023-11-19T05:51:52;9.90;;;7.70;;
7263;SDS011;3673;52.480;13.348;2023-11-19T05:54:20;9.82;;;7.68;;
7263;SDS011;3673;52.480;13.348;2023-11-19T05:56:47;9.13;;;7.45;;
7263;SDS011;3673;52.480;13.348;2023-11-19T05:59:14;10.32;;;7.40;;
7263;SDS011;3673;52.480;13.348;2023-11-19T06:01:42;8.75;;;7.05;;
7263;SDS011;3673;52.480;13.348;2023-11-19T06:04:09;10.02;;;7.60;;
7263;SDS011;3673;52.480;13.348;2023-11-19T06:06:36;10.77;;;7.28;;
7263;SDS011;3673;52.480;13.348;2023-11-19T06:09:06;10.00;;;7.40;;
7263;SDS011;3673;52.480;13.348;2023-11-19T06:11:34;10.00;;;7.25;;
7263;SDS011;3673;52.480;13.348;2023-11-19T06:14:01;10.30;;;7.78;;
7263;SDS011;3673;52.480;13.348;2023-11-19T06:16:30;9.93;;;7.30;;
7263;SDS011;3673;52.480;13.348;2023-11-19T06:18:57;8.38;;;6.88;;
7263;SDS011;3673;52.480;13.348;2023-11-19T06:21:24;9.27;;;7.25;;
7263;SDS011;3673;52.480;13.348;2023-11-19T06:23:50;9.75;;;7.43;;
7263;SDS011;3673;52.480;13.348;2023-11-19T06:26:19;10.38;;;8.13;;
7263;SDS011;3673;52.480;13.348;2023-11-19T06:28:47;9.45;;;7.18;;
7263;SDS011;3673;52.480;13.348;2023-11-19T06:31:13;11.82;;;7.28;;
7263;SDS011;3673;52.480;13.348;2023-11-19T06:33:41;8.98;;;7.10;;
7263;SDS011;3673;52.480;13.348;2023-11-19T06:36:08;11.30;;;7.60;;
7263;SDS011;3673;52.480;13.348;2023-11-19T06:38:35;13.55;;;7.55;;
7263;SDS011;3673;52.480;13.348;2023-11-19T06:41:02;11.93;;;8.13;;
7263;SDS011;3673;52.480;13.348;2023-11-19T06:43:36;7.88;;;6.70;;
7263;SDS011;3673;52.480;13.348;2023-11-19T06:46:04;11.95;;;7.72;;
7263;SDS011;3673;52.480;13.348;2023-11-19T06:48:31;8.30;;;6.80;;
7263;SDS011;3673;52.480;13.348;2023-11-19T06:50:58;8.10;;;6.57;;
7263;SDS011;3673;52.480;13.348;2023-11-19T06:53:26;10.00;;;7.40;;
7263;SDS011;3673;52.480;13.348;2023-11-19T06:55:53;8.57;;;6.80;;
7263;SDS011;3673;52.480;13.348;2023-11-19T06:58:19;8.15;;;6.93;;
7263;SDS011;3673;52.480;13.348;2023-11-19T07:00:47;8.63;;;6.68;;
7263;SDS011;3673;52.480;13.348;2023-11-19T07:03:16;8.13;;;6.65;;
7263;SDS011;3673;52.480;13.348;2023-11-19T07:05:43;10.30;;;7.20;;
7263;SDS011;3673;52.480;13.348;2023-11-19T07:08:09;8.45;;;6.45;;
7263;SDS011;3673;52.480;13.348;2023-11-19T07:10:36;10.75;;;7.10;;
7263;SDS011;3673;52.480;13.348;2023-11-19T07:13:03;10.95;;;6.60;;
7263;SDS011;3673;52.480;13.348;2023-11-19T07:15:30;7.97;;;6.38;;
7263;SDS011;3673;52.480;13.348;2023-11-19T07:17:59;9.27;;;6.03;;
7263;SDS011;3673;52.480;13.348;2023-11-19T07:20:26;7.95;;;6.43;;
7263;SDS011;3673;52.480;13.348;2023-11-19T07:22:53;6.05;;;5.35;;
7263;SDS011;3673;52.480;13.348;2023-11-19T07:25:22;8.02;;;6.05;;
7263;SDS011;3673;52.480;13.348;2023-11-19T07:27:49;10.85;;;6.65;;
7263;SDS011;3673;52.480;13.348;2023-11-19T07:30:17;9.68;;;7.15;;
7263;SDS011;3673;52.480;13.348;2023-11-19T07:32:44;7.60;;;6.05;;
7263;SDS011;3673;52.480;13.348;2023-11-19T07:35:12;7.47;;;6.28;;
7263;SDS011;3673;52.480;13.348;2023-11-19T07:37:38;6.28;;;5.32;;
7263;SDS011;3673;52.480;13.348;2023-11-19T07:40:06;7.88;;;5.95;;
7263;SDS011;3673;52.480;13.348;2023-11-19T07:42:34;7.68;;;6.00;;
7263;SDS011;3673;52.480;13.348;2023-11-19T07:45:03;5.40;;;4.85;;
7263;SDS011;3673;52.480;13.348;2023-11-19T07:47:32;10.63;;;6.07;;
7263;SDS011;3673;52.480;13.348;2023-11-19T07:49:59;10.52;;;5.55;;
7263;SDS011;3673;52.480;13.348;2023-11-19T07:52:27;9.27;;;6.25;;
7263;SDS011;3673;52.480;13.348;2023-11-19T07:54:54;8.73;;;6.68;;
7263;SDS011;3673;52.480;13.348;2023-11-19T07:57:21;9.05;;;6.93;;
7263;SDS011;3673;52.480;13.348;2023-11-19T07:59:49;8.95;;;6.03;;
7263;SDS011;3673;52.480;13.348;2023-11-19T08:02:15;11.48;;;6.70;;
7263;SDS011;3673;52.480;13.348;2023-11-19T08:04:43;6.68;;;6.00;;
7263;SDS011;3673;52.480;13.348;2023-11-19T08:07:11;9.18;;;6.88;;
7263;SDS011;3673;52.480;13.348;2023-11-19T08:09:39;6.90;;;5.55;;
7263;SDS011;3673;52.480;13.348;2023-11-19T08:12:05;10.10;;;6.00;;
7263;SDS011;3673;52.480;13.348;2023-11-19T08:14:33;9.00;;;7.30;;
7263;SDS011;3673;52.480;13.348;2023-11-19T08:17:02;8.20;;;6.65;;
7263;SDS011;3673;52.480;13.348;2023-11-19T08:19:29;10.25;;;8.50;;
7263;SDS011;3673;52.480;13.348;2023-11-19T08:21:56;8.30;;;6.75;;
7263;SDS011;3673;52.480;13.348;2023-11-19T08:24:22;11.45;;;9.35;;
7263;SDS011;3673;52.480;13.348;2023-11-19T08:26:50;14.52;;;11.63;;
7263;SDS011;3673;52.480;13.348;2023-11-19T08:29:17;17.33;;;14.00;;
7263;SDS011;3673;52.480;13.348;2023-11-19T08:31:44;16.10;;;11.50;;
7263;SDS011;3673;52.480;13.348;2023-11-19T08:34:11;29.27;;;20.17;;
7263;SDS011;3673;52.480;13.348;2023-11-19T08:36:37;37.25;;;24.33;;
7263;SDS011;3673;52.480;13.348;2023-11-19T08:39:04;110.15;;;46.17;;
7263;SDS011;3673;52.480;13.348;2023-11-19T08:41:33;48.08;;;24.10;;
7263;SDS011;3673;52.480;13.348;2023-11-19T08:44:01;64.95;;;30.23;;
7263;SDS011;3673;52.480;13.348;2023-11-19T08:46:28;59.75;;;28.50;;
7263;SDS011;3673;52.480;13.348;2023-11-19T08:48:55;58.03;;;24.58;;
7263;SDS011;3673;52.480;13.348;2023-11-19T08:51:22;92.03;;;33.53;;
7263;SDS011;3673;52.480;13.348;2023-11-19T08:53:49;68.93;;;25.13;;
7263;SDS011;3673;52.480;13.348;2023-11-19T08:56:16;60.53;;;23.55;;
7263;SDS011;3673;52.480;13.348;2023-11-19T08:58:43;43.28;;;18.08;;
7263;SDS011;3673;52.480;13.348;2023-11-19T09:01:11;59.97;;;24.73;;
7263;SDS011;3673;52.480;13.348;2023-11-19T09:03:38;43.08;;;19.17;;
7263;SDS011;3673;52.480;13.348;2023-11-19T09:06:05;30.70;;;16.40;;
7263;SDS011;3673;52.480;13.348;2023-11-19T09:08:32;18.85;;;11.93;;
7263;SDS011;3673;52.480;13.348;2023-11-19T09:10:59;58.33;;;30.80;;
7263;SDS011;3673;52.480;13.348;2023-11-19T09:13:26;28.65;;;16.88;;
7263;SDS011;3673;52.480;13.348;2023-11-19T09:15:52;37.10;;;21.23;;
7263;SDS011;3673;52.480;13.348;2023-11-19T09:18:20;42.65;;;23.13;;
7263;SDS011;3673;52.480;13.348;2023-11-19T09:20:47;71.57;;;36.60;;
7263;SDS011;3673;52.480;13.348;2023-11-19T09:23:14;25.15;;;14.35;;
7263;SDS011;3673;52.480;13.348;2023-11-19T09:25:40;38.75;;;21.33;;
7263;SDS011;3673;52.480;13.348;2023-11-19T09:28:07;80.70;;;40.53;;
7263;SDS011;3673;52.480;13.348;2023-11-19T09:30:34;14.02;;;10.50;;
7263;SDS011;3673;52.480;13.348;2023-11-19T09:33:01;13.05;;;8.98;;
7263;SDS011;3673;52.480;13.348;2023-11-19T09:35:29;22.98;;;13.88;;
7263;SDS011;3673;52.480;13.348;2023-11-19T09:37:55;11.70;;;8.60;;
7263;SDS011;3673;52.480;13.348;2023-11-19T09:40:22;23.10;;;16.02;;
7263;SDS011;3673;52.480;13.348;2023-11-19T09:42:49;14.07;;;9.52;;
7263;SDS011;3673;52.480;13.348;2023-11-19T09:45:16;10.20;;;7.05;;
7263;SDS011;3673;52.480;13.348;2023-11-19T09:47:46;9.68;;;7.40;;
7263;SDS011;3673;52.480;13.348;2023-11-19T09:50:15;7.53;;;5.50;;
7263;SDS011;3673;52.480;13.348;2023-11-19T09:52:45;8.23;;;6.07;;
7263;SDS011;3673;52.480;13.348;2023-11-19T09:55:12;9.32;;;6.82;;
7263;SDS011;3673;52.480;13.348;2023-11-19T09:57:40;7.10;;;4.95;;
7263;SDS011;3673;52.480;13.348;2023-11-19T10:00:09;7.85;;;4.22;;
7263;SDS011;3673;52.480;13.348;2023-11-19T10:02:40;6.78;;;5.07;;
7263;SDS011;3673;52.480;13.348;2023-11-19T10:05:11;9.50;;;4.18;;
7263;SDS011;3673;52.480;13.348;2023-11-19T10:07:39;9.05;;;4.22;;
7263;SDS011;3673;52.480;13.348;2023-11-19T10:10:08;4.30;;;3.45;;
7263;SDS011;3673;52.480;13.348;2023-11-19T10:12:38;9.85;;;3.15;;
7263;SDS011;3673;52.480;13.348;2023-11-19T10:15:06;6.90;;;3.58;;
7263;SDS011;3673;52.480;13.348;2023-11-19T10:17:39;5.13;;;2.78;;
7263;SDS011;3673;52.480;13.348;2023-11-19T10:20:08;10.80;;;4.68;;
7263;SDS011;3673;52.480;13.348;2023-11-19T10:22:36;8.45;;;3.92;;
7263;SDS011;3673;52.480;13.348;2023-11-19T10:25:04;7.80;;;3.85;;
7263;SDS011;3673;52.480;13.348;2023-11-19T10:27:33;10.77;;;5.00;;
7263;SDS011;3673;52.480;13.348;2023-11-19T10:30:00;8.55;;;3.92;;
7263;SDS011;3673;52.480;13.348;2023-11-19T10:32:27;9.50;;;3.50;;
7263;SDS011;3673;52.480;13.348;2023-11-19T10:35:04;5.70;;;3.65;;
7263;SDS011;3673;52.480;13.348;2023-11-19T10:37:32;5.68;;;3.58;;
7263;SDS011;3673;52.480;13.348;2023-11-19T10:40:02;8.40;;;3.55;;
7263;SDS011;3673;52.480;13.348;2023-11-19T10:42:30;6.70;;;2.83;;
7263;SDS011;3673;52.480;13.348;2023-11-19T10:44:58;5.90;;;2.50;;
7263;SDS011;3673;52.480;13.348;2023-11-19T10:47:25;5.78;;;2.47;;
7263;SDS011;3673;52.480;13.348;2023-11-19T10:49:53;9.43;;;2.80;;
7263;SDS011;3673;52.480;13.348;2023-11-19T10:52:20;7.75;;;2.47;;
7263;SDS011;3673;52.480;13.348;2023-11-19T10:54:49;12.40;;;2.92;;
7263;SDS011;3673;52.480;13.348;2023-11-19T10:57:19;8.75;;;2.60;;
7263;SDS011;3673;52.480;13.348;2023-11-19T10:59:49;9.13;;;2.47;;
7263;SDS011;3673;52.480;13.348;2023-11-19T11:02:21;9.80;;;2.75;;
7263;SDS011;3673;52.480;13.348;2023-11-19T11:04:51;12.02;;;2.38;;
7263;SDS011;3673;52.480;13.348;2023-11-19T11:07:18;9.13;;;2.53;;
7263;SDS011;3673;52.480;13.348;2023-11-19T11:09:50;12.45;;;2.97;;
7263;SDS011;3673;52.480;13.348;2023-11-19T11:12:18;9.80;;;2.72;;
7263;SDS011;3673;52.480;13.348;2023-11-19T11:14:51;7.40;;;2.50;;
7263;SDS011;3673;52.480;13.348;2023-11-19T11:17:20;12.13;;;3.40;;
7263;SDS011;3673;52.480;13.348;2023-11-19T11:19:52;14.07;;;4.43;;
7263;SDS011;3673;52.480;13.348;2023-11-19T11:22:18;12.52;;;2.95;;
7263;SDS011;3673;52.480;13.348;2023-11-19T11:24:54;14.45;;;3.30;;
7263;SDS011;3673;52.480;13.348;2023-11-19T11:27:54;13.73;;;4.75;;
7263;SDS011;3673;52.480;13.348;2023-11-19T11:30:39;7.82;;;2.75;;
7263;SDS011;3673;52.480;13.348;2023-11-19T11:33:27;11.90;;;2.95;;
7263;SDS011;3673;52.480;13.348;2023-11-19T11:36:10;10.40;;;3.65;;
7263;SDS011;3673;52.480;13.348;2023-11-19T11:38:45;9.98;;;3.10;;
7263;SDS011;3673;52.480;13.348;2023-11-19T11:41:15;17.02;;;3.42;;
7263;SDS011;3673;52.480;13.348;2023-11-19T11:43:47;12.70;;;3.47;;
7263;SDS011;3673;52.480;13.348;2023-11-19T11:49:24;13.93;;;3.55;;
7263;SDS011;3673;52.480;13.348;2023-11-19T11:51:58;11.70;;;3.47;;
7263;SDS011;3673;52.480;13.348;2023-11-19T11:54:32;9.90;;;2.90;;
7263;SDS011;3673;52.480;13.348;2023-11-19T11:57:00;19.83;;;3.58;;
7263;SDS011;3673;52.480;13.348;2023-11-19T11:59:34;11.10;;;3.47;;
7263;SDS011;3673;52.480;13.348;2023-11-19T12:02:05;15.23;;;3.70;;
7263;SDS011;3673;52.480;13.348;2023-11-19T12:04:35;20.67;;;3.97;;
7263;SDS011;3673;52.480;13.348;2023-11-19T12:07:04;15.55;;;3.05;;
7263;SDS011;3673;52.480;13.348;2023-11-19T12:09:31;17.13;;;3.65;;
7263;SDS011;3673;52.480;13.348;2023-11-19T12:12:11;12.65;;;2.88;;
7263;SDS011;3673;52.480;13.348;2023-11-19T12:15:00;13.63;;;3.28;;
7263;SDS011;3673;52.480;13.348;2023-11-19T12:17:43;19.50;;;3.53;;
7263;SDS011;3673;52.480;13.348;2023-11-19T12:20:15;13.50;;;3.05;;
7263;SDS011;3673;52.480;13.348;2023-11-19T12:22:43;15.38;;;3.85;;
7263;SDS011;3673;52.480;13.348;2023-11-19T12:25:14;14.73;;;3.53;;
7263;SDS011;3673;52.480;13.348;2023-11-19T12:27:43;14.90;;;3.53;;
7263;SDS011;3673;52.480;13.348;2023-11-19T12:30:11;11.73;;;2.83;;
7263;SDS011;3673;52.480;13.348;2023-11-19T12:32:44;15.40;;;3.45;;
7263;SDS011;3673;52.480;13.348;2023-11-19T12:35:12;9.95;;;3.00;;
7263;SDS011;3673;52.480;13.348;2023-11-19T12:37:39;19.25;;;4.43;;
7263;SDS011;3673;52.480;13.348;2023-11-19T12:40:11;13.85;;;3.30;;
7263;SDS011;3673;52.480;13.348;2023-11-19T12:42:42;16.50;;;3.70;;
7263;SDS011;3673;52.480;13.348;2023-11-19T12:45:09;11.75;;;3.58;;
7263;SDS011;3673;52.480;13.348;2023-11-19T12:47:37;23.40;;;8.32;;
7263;SDS011;3673;52.480;13.348;2023-11-19T12:50:06;14.45;;;3.45;;
7263;SDS011;3673;52.480;13.348;2023-11-19T12:52:35;22.45;;;3.75;;
7263;SDS011;3673;52.480;13.348;2023-11-19T12:55:02;21.27;;;3.58;;
7263;SDS011;3673;52.480;13.348;2023-11-19T12:57:40;17.98;;;4.00;;
7263;SDS011;3673;52.480;13.348;2023-11-19T13:00:17;21.88;;;4.38;;
7263;SDS011;3673;52.480;13.348;2023-11-19T13:02:47;24.40;;;4.82;;
7263;SDS011;3673;52.480;13.348;2023-11-19T13:05:23;18.83;;;3.55;;
7263;SDS011;3673;52.480;13.348;2023-11-19T13:07:59;19.50;;;3.83;;
7263;SDS011;3673;52.480;13.348;2023-11-19T13:10:31;26.17;;;5.72;;
7263;SDS011;3673;52.480;13.348;2023-11-19T13:13:05;19.10;;;4.30;;
7263;SDS011;3673;52.480;13.348;2023-11-19T13:15:34;17.90;;;3.65;;
7263;SDS011;3673;52.480;13.348;2023-11-19T13:18:01;18.98;;;4.43;;
7263;SDS011;3673;52.480;13.348;2023-11-19T13:20:30;23.30;;;4.63;;
7263;SDS011;3673;52.480;13.348;2023-11-19T13:22:57;19.55;;;4.93;;
7263;SDS011;3673;52.480;13.348;2023-11-19T13:25:25;23.55;;;4.55;;
7263;SDS011;3673;52.480;13.348;2023-11-19T13:27:52;24.85;;;3.80;;
7263;SDS011;3673;52.480;13.348;2023-11-19T13:30:19;22.02;;;3.80;;
7263;SDS011;3673;52.480;13.348;2023-11-19T13:32:47;13.48;;;3.55;;
7263;SDS011;3673;52.480;13.348;2023-11-19T13:35:14;20.65;;;4.68;;
7263;SDS011;3673;52.480;13.348;2023-11-19T13:37:43;20.58;;;4.32;;
7263;SDS011;3673;52.480;13.348;2023-11-19T13:40:11;14.27;;;3.63;;
7263;SDS011;3673;52.480;13.348;2023-11-19T13:42:40;14.52;;;3.90;;
7263;SDS011;3673;52.480;13.348;2023-11-19T13:45:08;13.68;;;3.70;;
7263;SDS011;3673;52.480;13.348;2023-11-19T13:47:37;24.50;;;5.43;;
7263;SDS011;3673;52.480;13.348;2023-11-19T13:50:06;26.13;;;5.25;;
7263;SDS011;3673;52.480;13.348;2023-11-19T13:52:34;23.40;;;4.88;;
7263;SDS011;3673;52.480;13.348;2023-11-19T13:55:05;24.10;;;4.32;;
7263;SDS011;3673;52.480;13.348;2023-11-19T13:57:33;21.02;;;4.13;;
7263;SDS011;3673;52.480;13.348;2023-11-19T14:00:00;14.02;;;4.00;;
7263;SDS011;3673;52.480;13.348;2023-11-19T14:02:28;18.60;;;3.78;;
7263;SDS011;3673;52.480;13.348;2023-11-19T14:04:55;18.02;;;4.18;;
7263;SDS011;3673;52.480;13.348;2023-11-19T14:07:21;19.65;;;4.28;;
7263;SDS011;3673;52.480;13.348;2023-11-19T14:09:48;28.05;;;9.93;;
7263;SDS011;3673;52.480;13.348;2023-11-19T14:12:17;22.98;;;5.47;;
7263;SDS011;3673;52.480;13.348;2023-11-19T14:14:43;18.98;;;4.90;;
7263;SDS011;3673;52.480;13.348;2023-11-19T14:17:10;28.20;;;12.13;;
7263;SDS011;3673;52.480;13.348;2023-11-19T14:19:37;22.60;;;5.40;;
7263;SDS011;3673;52.480;13.348;2023-11-19T14:22:04;17.05;;;4.55;;
7263;SDS011;3673;52.480;13.348;2023-11-19T14:24:31;14.48;;;4.55;;
7263;SDS011;3673;52.480;13.348;2023-11-19T14:26:58;22.27;;;4.85;;
7263;SDS011;3673;52.480;13.348;2023-11-19T14:29:27;26.38;;;4.60;;
7263;SDS011;3673;52.480;13.348;2023-11-19T14:31:54;21.25;;;4.50;;
7263;SDS011;3673;52.480;13.348;2023-11-19T14:34:21;22.23;;;4.95;;
7263;SDS011;3673;52.480;13.348;2023-11-19T14:36:48;23.92;;;5.22;;
7263;SDS011;3673;52.480;13.348;2023-11-19T14:39:15;25.90;;;4.38;;
7263;SDS011;3673;52.480;13.348;2023-11-19T14:41:42;18.85;;;4.65;;
7263;SDS011;3673;52.480;13.348;2023-11-19T14:44:09;14.85;;;3.65;;
7263;SDS011;3673;52.480;13.348;2023-11-19T14:46:37;13.52;;;4.05;;
7263;SDS011;3673;52.480;13.348;2023-11-19T14:49:04;16.05;;;5.78;;
7263;SDS011;3673;52.480;13.348;2023-11-19T14:51:33;21.55;;;4.30;;
7263;SDS011;3673;52.480;13.348;2023-11-19T14:54:01;18.67;;;4.13;;
7263;SDS011;3673;52.480;13.348;2023-11-19T14:56:29;19.38;;;4.00;;
7263;SDS011;3673;52.480;13.348;2023-11-19T14:58:55;22.33;;;3.88;;
7263;SDS011;3673;52.480;13.348;2023-11-19T15:01:22;18.50;;;3.53;;
7263;SDS011;3673;52.480;13.348;2023-11-19T15:03:50;22.90;;;4.47;;